sensor_id;sensor_type;location;lat;lon;timestamp;P1;durP1;ratioP1;P2;durP2;ratioP2
38252;SDS011;24785;52.372;20.672;2023-04-24T00:10:00;17.80;;;7.88;;
38252;SDS011;24785;52.372;20.672;2023-04-24T00:20:01;16.38;;;8.23;;
38252;SDS011;24785;52.372;20.672;2023-04-24T00:30:05;17.33;;;8.10;;
38252;SDS011;24785;52.372;20.672;2023-04-24T00:40:06;16.02;;;9.38;;
38252;SDS011;24785;52.372;20.672;2023-04-24T00:50:08;17.10;;;8.70;;
38252;SDS011;24785;52.372;20.672;2023-04-24T01:00:09;24.00;;;9.40;;
38252;SDS011;24785;52.372;20.672;2023-04-24T01:10:13;19.67;;;9.02;;
38252;SDS011;24785;52.372;20.672;2023-04-24T01:20:15;12.30;;;7.57;;
38252;SDS011;24785;52.372;20.672;2023-04-24T01:30:17;14.97;;;8.50;;
38252;SDS011;24785;52.372;20.672;2023-04-24T01:40:18;27.70;;;10.45;;
38252;SDS011;24785;52.372;20.672;2023-04-24T01:50:19;18.00;;;9.23;;
38252;SDS011;24785;52.372;20.672;2023-04-24T02:00:19;20.77;;;8.90;;
38252;SDS011;24785;52.372;20.672;2023-04-24T02:10:20;19.63;;;9.82;;
38252;SDS011;24785;52.372;20.672;2023-04-24T02:20:21;24.67;;;11.95;;
38252;SDS011;24785;52.372;20.672;2023-04-24T02:30:22;24.13;;;11.10;;
38252;SDS011;24785;52.372;20.672;2023-04-24T02:40:23;23.33;;;10.93;;
38252;SDS011;24785;52.372;20.672;2023-04-24T02:50:23;34.90;;;13.45;;
38252;SDS011;24785;52.372;20.672;2023-04-24T03:00:24;24.35;;;10.85;;
38252;SDS011;24785;52.372;20.672;2023-04-24T03:10:25;21.85;;;10.95;;
38252;SDS011;24785;52.372;20.672;2023-04-24T03:20:26;26.70;;;11.30;;
38252;SDS011;24785;52.372;20.672;2023-04-24T03:30:27;24.88;;;11.13;;
38252;SDS011;24785;52.372;20.672;2023-04-24T03:40:28;18.40;;;10.25;;
38252;SDS011;24785;52.372;20.672;2023-04-24T03:50:30;27.08;;;10.70;;
38252;SDS011;24785;52.372;20.672;2023-04-24T04:00:30;25.08;;;9.98;;
38252;SDS011;24785;52.372;20.672;2023-04-24T04:10:32;29.15;;;11.30;;
38252;SDS011;24785;52.372;20.672;2023-04-24T04:20:33;31.92;;;12.05;;
38252;SDS011;24785;52.372;20.672;2023-04-24T04:30:34;26.15;;;11.10;;
38252;SDS011;24785;52.372;20.672;2023-04-24T04:40:35;17.48;;;9.55;;
38252;SDS011;24785;52.372;20.672;2023-04-24T04:50:36;17.15;;;9.48;;
38252;SDS011;24785;52.372;20.672;2023-04-24T05:00:37;18.20;;;10.40;;
38252;SDS011;24785;52.372;20.672;2023-04-24T05:10:38;19.05;;;9.80;;
38252;SDS011;24785;52.372;20.672;2023-04-24T05:20:40;30.37;;;10.27;;
38252;SDS011;24785;52.372;20.672;2023-04-24T05:40:44;19.35;;;9.27;;
38252;SDS011;24785;52.372;20.672;2023-04-24T05:50:45;17.02;;;8.93;;
38252;SDS011;24785;52.372;20.672;2023-04-24T06:00:47;14.35;;;8.45;;
38252;SDS011;24785;52.372;20.672;2023-04-24T06:10:48;11.90;;;7.55;;
38252;SDS011;24785;52.372;20.672;2023-04-24T06:20:50;14.85;;;8.35;;
38252;SDS011;24785;52.372;20.672;2023-04-24T06:30:51;16.55;;;8.20;;
38252;SDS011;24785;52.372;20.672;2023-04-24T06:40:52;16.38;;;7.80;;
38252;SDS011;24785;52.372;20.672;2023-04-24T06:50:52;15.90;;;8.50;;
38252;SDS011;24785;52.372;20.672;2023-04-24T07:00:53;13.18;;;7.43;;
38252;SDS011;24785;52.372;20.672;2023-04-24T07:10:54;13.57;;;8.25;;
38252;SDS011;24785;52.372;20.672;2023-04-24T07:20:56;11.80;;;6.93;;
38252;SDS011;24785;52.372;20.672;2023-04-24T07:30:57;14.23;;;6.57;;
38252;SDS011;24785;52.372;20.672;2023-04-24T07:41:00;24.08;;;6.68;;
38252;SDS011;24785;52.372;20.672;2023-04-24T07:51:01;16.92;;;6.20;;
38252;SDS011;24785;52.372;20.672;2023-04-24T08:01:02;10.85;;;6.28;;
38252;SDS011;24785;52.372;20.672;2023-04-24T08:11:02;11.43;;;5.40;;
38252;SDS011;24785;52.372;20.672;2023-04-24T08:21:03;40.65;;;8.32;;
38252;SDS011;24785;52.372;20.672;2023-04-24T08:31:05;8.63;;;4.30;;
38252;SDS011;24785;52.372;20.672;2023-04-24T08:41:06;6.40;;;3.78;;
38252;SDS011;24785;52.372;20.672;2023-04-24T08:51:08;6.65;;;3.95;;
38252;SDS011;24785;52.372;20.672;2023-04-24T09:01:09;6.87;;;3.50;;
38252;SDS011;24785;52.372;20.672;2023-04-24T09:11:10;8.37;;;3.80;;
38252;SDS011;24785;52.372;20.672;2023-04-24T09:21:12;5.07;;;3.23;;
38252;SDS011;24785;52.372;20.672;2023-04-24T09:31:13;11.25;;;3.60;;
38252;SDS011;24785;52.372;20.672;2023-04-24T09:41:18;6.45;;;3.80;;
38252;SDS011;24785;52.372;20.672;2023-04-24T09:51:19;9.75;;;3.92;;
38252;SDS011;24785;52.372;20.672;2023-04-24T10:01:34;9.70;;;3.70;;
38252;SDS011;24785;52.372;20.672;2023-04-24T10:11:35;12.07;;;3.85;;
38252;SDS011;24785;52.372;20.672;2023-04-24T10:21:37;8.83;;;3.30;;
38252;SDS011;24785;52.372;20.672;2023-04-24T10:31:43;6.32;;;3.63;;
38252;SDS011;24785;52.372;20.672;2023-04-24T10:41:48;7.22;;;4.10;;
38252;SDS011;24785;52.372;20.672;2023-04-24T10:51:50;9.35;;;3.80;;
38252;SDS011;24785;52.372;20.672;2023-04-24T11:01:56;8.18;;;4.00;;
38252;SDS011;24785;52.372;20.672;2023-04-24T11:12:06;14.27;;;5.95;;
38252;SDS011;24785;52.372;20.672;2023-04-24T11:22:14;6.07;;;3.00;;
38252;SDS011;24785;52.372;20.672;2023-04-24T11:32:34;5.70;;;2.35;;
38252;SDS011;24785;52.372;20.672;2023-04-24T11:42:49;6.97;;;2.90;;
38252;SDS011;24785;52.372;20.672;2023-04-24T11:52:52;45.90;;;7.65;;
38252;SDS011;24785;52.372;20.672;2023-04-24T12:03:03;12.10;;;3.80;;
38252;SDS011;24785;52.372;20.672;2023-04-24T12:13:09;4.43;;;2.90;;
38252;SDS011;24785;52.372;20.672;2023-04-24T12:33:11;6.50;;;3.55;;
38252;SDS011;24785;52.372;20.672;2023-04-24T12:43:15;12.93;;;3.97;;
38252;SDS011;24785;52.372;20.672;2023-04-24T12:53:18;8.90;;;4.30;;
38252;SDS011;24785;52.372;20.672;2023-04-24T13:03:19;11.13;;;4.97;;
38252;SDS011;24785;52.372;20.672;2023-04-24T13:13:20;14.57;;;3.77;;
38252;SDS011;24785;52.372;20.672;2023-04-24T13:23:21;14.02;;;3.70;;
38252;SDS011;24785;52.372;20.672;2023-04-24T13:33:23;7.18;;;3.42;;
38252;SDS011;24785;52.372;20.672;2023-04-24T13:43:24;7.03;;;3.35;;
38252;SDS011;24785;52.372;20.672;2023-04-24T13:53:24;17.48;;;5.10;;
38252;SDS011;24785;52.372;20.672;2023-04-24T14:03:25;40.40;;;6.32;;
38252;SDS011;24785;52.372;20.672;2023-04-24T14:13:26;12.65;;;3.53;;
38252;SDS011;24785;52.372;20.672;2023-04-24T14:23:28;34.17;;;5.47;;
38252;SDS011;24785;52.372;20.672;2023-04-24T14:33:28;35.53;;;6.22;;
38252;SDS011;24785;52.372;20.672;2023-04-24T14:43:29;6.22;;;3.38;;
38252;SDS011;24785;52.372;20.672;2023-04-24T14:53:30;7.65;;;4.07;;
38252;SDS011;24785;52.372;20.672;2023-04-24T15:03:31;5.90;;;3.47;;
38252;SDS011;24785;52.372;20.672;2023-04-24T15:13:32;9.05;;;3.75;;
38252;SDS011;24785;52.372;20.672;2023-04-24T15:23:33;11.65;;;3.67;;
38252;SDS011;24785;52.372;20.672;2023-04-24T15:33:34;6.20;;;3.17;;
38252;SDS011;24785;52.372;20.672;2023-04-24T15:43:35;9.43;;;3.75;;
38252;SDS011;24785;52.372;20.672;2023-04-24T15:53:36;13.88;;;3.67;;
38252;SDS011;24785;52.372;20.672;2023-04-24T16:03:37;8.82;;;3.47;;
38252;SDS011;24785;52.372;20.672;2023-04-24T16:13:38;12.80;;;4.03;;
38252;SDS011;24785;52.372;20.672;2023-04-24T16:23:38;6.82;;;4.63;;
38252;SDS011;24785;52.372;20.672;2023-04-24T16:33:39;12.70;;;4.30;;
38252;SDS011;24785;52.372;20.672;2023-04-24T16:43:40;19.63;;;10.55;;
38252;SDS011;24785;52.372;20.672;2023-04-24T16:53:41;34.35;;;15.90;;
38252;SDS011;24785;52.372;20.672;2023-04-24T17:03:42;69.03;;;32.58;;
38252;SDS011;24785;52.372;20.672;2023-04-24T17:13:43;33.38;;;15.30;;
38252;SDS011;24785;52.372;20.672;2023-04-24T17:23:44;25.52;;;13.45;;
38252;SDS011;24785;52.372;20.672;2023-04-24T17:33:45;37.60;;;17.15;;
38252;SDS011;24785;52.372;20.672;2023-04-24T17:43:46;27.40;;;11.13;;
38252;SDS011;24785;52.372;20.672;2023-04-24T17:53:47;24.85;;;11.00;;
38252;SDS011;24785;52.372;20.672;2023-04-24T18:03:48;15.75;;;8.70;;
38252;SDS011;24785;52.372;20.672;2023-04-24T18:13:49;23.08;;;10.85;;
38252;SDS011;24785;52.372;20.672;2023-04-24T18:23:50;31.42;;;14.68;;
38252;SDS011;24785;52.372;20.672;2023-04-24T18:33:51;57.00;;;22.67;;
38252;SDS011;24785;52.372;20.672;2023-04-24T18:43:54;33.15;;;16.10;;
38252;SDS011;24785;52.372;20.672;2023-04-24T18:53:57;27.33;;;12.50;;
38252;SDS011;24785;52.372;20.672;2023-04-24T19:04:00;37.70;;;10.47;;
38252;SDS011;24785;52.372;20.672;2023-04-24T19:14:01;58.35;;;21.80;;
38252;SDS011;24785;52.372;20.672;2023-04-24T19:24:05;53.80;;;21.20;;
38252;SDS011;24785;52.372;20.672;2023-04-24T19:34:06;42.80;;;17.55;;
38252;SDS011;24785;52.372;20.672;2023-04-24T19:44:07;23.02;;;11.45;;
38252;SDS011;24785;52.372;20.672;2023-04-24T19:54:08;18.95;;;9.27;;
38252;SDS011;24785;52.372;20.672;2023-04-24T20:04:09;16.95;;;9.00;;
38252;SDS011;24785;52.372;20.672;2023-04-24T20:14:11;18.55;;;9.57;;
38252;SDS011;24785;52.372;20.672;2023-04-24T20:24:11;15.88;;;9.35;;
38252;SDS011;24785;52.372;20.672;2023-04-24T20:34:12;18.08;;;10.45;;
38252;SDS011;24785;52.372;20.672;2023-04-24T20:44:13;16.45;;;9.43;;
38252;SDS011;24785;52.372;20.672;2023-04-24T20:54:14;16.02;;;9.95;;
38252;SDS011;24785;52.372;20.672;2023-04-24T21:04:15;15.10;;;9.60;;
38252;SDS011;24785;52.372;20.672;2023-04-24T21:14:16;20.67;;;10.32;;
38252;SDS011;24785;52.372;20.672;2023-04-24T21:24:17;17.80;;;10.07;;
38252;SDS011;24785;52.372;20.672;2023-04-24T21:34:18;17.08;;;10.07;;
38252;SDS011;24785;52.372;20.672;2023-04-24T21:44:19;16.52;;;10.25;;
38252;SDS011;24785;52.372;20.672;2023-04-24T21:54:20;22.10;;;12.05;;
38252;SDS011;24785;52.372;20.672;2023-04-24T22:04:20;22.83;;;12.43;;
38252;SDS011;24785;52.372;20.672;2023-04-24T22:14:21;22.67;;;12.30;;
38252;SDS011;24785;52.372;20.672;2023-04-24T22:24:22;22.65;;;12.88;;
38252;SDS011;24785;52.372;20.672;2023-04-24T22:34:23;25.25;;;13.98;;
38252;SDS011;24785;52.372;20.672;2023-04-24T22:44:24;21.15;;;13.15;;
38252;SDS011;24785;52.372;20.672;2023-04-24T22:54:25;28.30;;;14.07;;
38252;SDS011;24785;52.372;20.672;2023-04-24T23:04:26;22.48;;;13.32;;
38252;SDS011;24785;52.372;20.672;2023-04-24T23:14:27;23.50;;;13.40;;
38252;SDS011;24785;52.372;20.672;2023-04-24T23:24:27;25.15;;;13.70;;
38252;SDS011;24785;52.372;20.672;2023-04-24T23:34:28;25.83;;;14.23;;
38252;SDS011;24785;52.372;20.672;2023-04-24T23:44:29;28.52;;;14.95;;
38252;SDS011;24785;52.372;20.672;2023-04-24T23:54:30;23.63;;;13.38;;
